Main page
METAR-TAF:

METAR-TAF

Airports :

Vijayawada International Airport

Vijayawada, India

latitude: 16-31-44N, longitude: 80-47-45E, elevation: 25 m

Current weather observation

The report was made 31 minutes ago, at 09:00 UTC
Wind 6 kt from the East
Temperature 37°C
Humidity 45%
Pressure 1000 hPa
Visibility: 6000 m
Few clouds at a height of 2000 ft
Scattered clouds at a height of 2500 ft

METAR: VOBZ 220900Z 09006KT 6000 FEW020 SCT025 37/23 Q1000 NOSIG

Time: 15:01 (09:31 UTC)

Forecast

The report was made 1 hour and 31 minutes ago, at 08:00 UTC
Forecast valid from 22 at 09 UTC to 22 at 18 UTC
Wind 8 kt from the East
Visibility: 6000 m
Scattered clouds at a height of 1500 ft
Scattered clouds at a height of 2500 ft
Temporary
from 20 at 10 UTC to 20 at 14 UTC
Few clouds at a height of 3000 ft, Cumulonimbus.

TAF: VOBZ 220800Z 2209/2218 08008KT 6000 SCT015 SCT025 TEMPO 2010/2014 FEW030CB

Weather observations and forecasts of more than 4000 airports (METAR and TAF reports).

The available stations are represented by yellow and red dots on the map.

Hover mouse over dot to see the name of the station.

Then click to see weather observations and forecasts.

To change the map : click on the green buttons with a black cross to zoom in, on the green button with a dash to zoom out, or on the green arrows for adjacent maps.


METAR-TAF: